Time;durP1;ratioP1;P1;durP2;ratioP2;P2;SDS_P1;SDS_P2;PMS_P1;PMS_P2;Temp;Humidity;BMP_temperature;BMP_pressure;BME280_temperature;BME280_humidity;BME280_pressure;Samples;Min_cycle;Max_cycle;Signal;HPM_P1;HPM_P2
2022/03/24 00:00:24;;;;;;;5.97;2.87;;;;;;;-143.84;28.06;45090.97;5048850;28;20919;-70
2022/03/24 00:02:51;;;;;;;6.87;2.47;;;;;;;-143.84;28.04;45108.09;5048537;28;20446;-70
2022/03/24 00:05:18;;;;;;;3.20;2.90;;;;;;;-143.84;27.99;45108.09;5048717;28;20472;-71
2022/03/24 00:07:45;;;;;;;4.00;2.80;;;;;;;-143.84;28.22;45123.34;5048340;28;20437;-70
2022/03/24 00:10:13;;;;;;;3.03;2.03;;;;;;;-143.84;28.46;45130.94;5048505;28;20487;-70
2022/03/24 00:12:40;;;;;;;8.43;2.70;;;;;;;-143.84;27.98;45094.78;5048849;28;20477;-70
2022/03/24 00:15:10;;;;;;;4.60;2.73;;;;;;;-143.84;28.15;45134.75;5048867;28;20437;-70
2022/03/24 00:17:37;;;;;;;3.87;3.13;;;;;;;-143.84;28.30;45123.34;5048322;28;20516;-70
2022/03/24 00:20:05;;;;;;;3.60;2.67;;;;;;;-143.84;28.13;45125.22;5048481;28;20484;-70
2022/03/24 00:22:32;;;;;;;4.07;3.33;;;;;;;-143.84;28.10;45127.13;5048229;28;21017;-70
2022/03/24 00:24:59;;;;;;;3.63;2.90;;;;;;;-143.84;27.94;45113.81;5048295;28;20445;-70
2022/03/24 00:27:27;;;;;;;3.93;3.07;;;;;;;-143.84;28.08;45100.47;5048326;28;20449;-70
2022/03/24 00:29:54;;;;;;;4.03;2.97;;;;;;;-143.84;27.59;45132.84;5048188;28;20430;-70
2022/03/24 00:32:23;;;;;;;5.93;2.67;;;;;;;-143.84;27.82;45104.28;5048673;28;20911;-71
2022/03/24 00:34:50;;;;;;;3.77;3.20;;;;;;;-143.84;27.84;45117.63;5048551;28;20442;-70
2022/03/24 00:37:18;;;;;;;4.33;2.80;;;;;;;-143.84;27.79;45110.00;5048290;28;20514;-70
2022/03/24 00:39:48;;;;;;;5.13;3.27;;;;;;;-143.84;27.42;45140.47;5048411;28;20472;-71
2022/03/24 00:42:15;;;;;;;3.07;2.77;;;;;;;-143.84;28.01;45134.75;5048059;28;20434;-70
2022/03/24 00:44:44;;;;;;;4.23;3.30;;;;;;;-143.84;27.56;45111.91;5048186;28;20438;-71
2022/03/24 00:47:13;;;;;;;5.27;3.33;;;;;;;-143.84;27.71;45106.19;5048032;28;20815;-70
2022/03/24 00:49:42;;;;;;;7.93;3.50;;;;;;;-143.84;27.53;45111.91;5047954;28;20960;-71
2022/03/24 00:52:10;;;;;;;5.20;4.10;;;;;;;-143.84;27.26;45102.38;5048269;28;20857;-70
2022/03/24 00:54:38;;;;;;;4.10;3.20;;;;;;;-143.84;27.15;45100.47;5049471;28;20437;-70
2022/03/24 00:57:06;;;;;;;3.23;2.93;;;;;;;-143.84;27.40;45117.63;5051708;28;20438;-70
2022/03/24 00:59:33;;;;;;;2.90;2.63;;;;;;;-143.84;27.33;45115.72;5051646;28;20441;-70
2022/03/24 01:02:00;;;;;;;4.13;2.53;;;;;;;-143.84;26.92;45134.75;5051513;28;20445;-70
2022/03/24 01:04:27;;;;;;;5.00;3.23;;;;;;;-143.84;27.39;45083.34;5051546;28;20453;-70
2022/03/24 01:06:56;;;;;;;5.23;3.20;;;;;;;-143.84;27.28;45106.19;5051848;28;20882;-70
2022/03/24 01:09:23;;;;;;;4.70;3.33;;;;;;;-143.84;26.94;45125.22;5035766;28;20459;-70
2022/03/24 01:11:51;;;;;;;4.43;2.87;;;;;;;-143.84;26.89;45102.38;5031438;28;20506;-70
2022/03/24 01:14:18;;;;;;;4.80;2.93;;;;;;;-143.84;26.54;45102.38;5031597;28;20548;-70
2022/03/24 01:16:45;;;;;;;3.23;2.87;;;;;;;-143.84;26.60;45094.78;5030998;28;20497;-70
2022/03/24 01:19:14;;;;;;;3.00;2.70;;;;;;;-143.84;27.04;45111.91;5030416;28;20501;-70
2022/03/24 01:21:42;;;;;;;3.80;2.80;;;;;;;-143.84;26.83;45096.66;5030270;28;20453;-70
2022/03/24 01:24:10;;;;;;;3.13;2.80;;;;;;;-143.84;27.00;45083.34;5031081;28;20533;-70
2022/03/24 01:26:38;;;;;;;3.00;2.80;;;;;;;-143.84;27.18;45111.91;5031216;28;20443;-70
2022/03/24 01:29:05;;;;;;;3.30;3.00;;;;;;;-143.84;26.88;45110.00;5030918;28;20439;-71
2022/03/24 01:31:33;;;;;;;4.63;3.00;;;;;;;-143.84;26.67;45111.91;5031220;28;20998;-70
2022/03/24 01:34:00;;;;;;;4.30;2.83;;;;;;;-143.84;27.00;45102.38;5030972;28;20478;-70
2022/03/24 01:36:27;;;;;;;9.20;2.60;;;;;;;-143.84;26.61;45129.03;5031196;28;20523;-70
2022/03/24 01:38:54;;;;;;;2.70;2.50;;;;;;;-143.84;26.74;45098.56;5031266;28;20442;-70
2022/03/24 01:41:23;;;;;;;3.27;3.07;;;;;;;-143.84;26.67;45085.25;5030845;28;21030;-70
2022/03/24 01:43:50;;;;;;;5.13;2.60;;;;;;;-143.84;26.74;45130.94;5030763;28;20447;-70
2022/03/24 01:46:22;;;;;;;4.53;3.50;;;;;;;-143.84;26.61;45102.38;5030697;28;20493;-70
2022/03/24 01:48:50;;;;;;;3.63;3.33;;;;;;;-143.84;26.23;45106.19;5030523;28;21018;-70
2022/03/24 01:51:17;;;;;;;3.70;3.40;;;;;;;-143.84;26.20;45100.47;5030834;28;20803;-70
2022/03/24 01:53:44;;;;;;;7.20;2.43;;;;;;;-143.84;26.64;45094.78;5030686;28;20482;-70
2022/03/24 01:56:13;;;;;;;6.00;3.23;;;;;;;-143.84;26.81;45115.72;5030729;28;20944;-70
2022/03/24 01:58:43;;;;;;;5.27;3.00;;;;;;;-143.84;26.82;45102.38;5030581;28;20904;-70
2022/03/24 02:01:29;;;;;;;3.73;3.10;;;;;;;-143.84;26.95;45068.13;5030673;28;20453;-70
2022/03/24 02:03:58;;;;;;;3.03;2.63;;;;;;;-143.84;26.98;45096.66;5030599;28;20988;-70
2022/03/24 02:06:26;;;;;;;4.00;3.30;;;;;;;-143.84;26.86;45096.66;5029547;28;20445;-70
2022/03/24 02:08:55;;;;;;;3.40;2.70;;;;;;;-143.84;26.85;45117.63;5030223;28;20820;-70
2022/03/24 02:11:22;;;;;;;3.80;2.70;;;;;;;-143.84;26.65;45100.47;5030406;28;20508;-70
2022/03/24 02:13:51;;;;;;;10.00;2.87;;;;;;;-143.84;26.53;45121.44;5030356;28;20537;-70
2022/03/24 02:16:18;;;;;;;2.60;2.40;;;;;;;-143.84;26.53;45110.00;5030311;28;20447;-71
2022/03/24 02:18:45;;;;;;;4.77;2.60;;;;;;;-143.84;26.85;45102.38;5030095;28;20516;-70
2022/03/24 02:21:16;;;;;;;3.07;2.77;;;;;;;-143.84;26.94;45098.56;5030265;28;20439;-70
2022/03/24 02:23:45;;;;;;;3.10;2.37;;;;;;;-143.84;26.82;45100.47;5030179;28;20517;-71
2022/03/24 02:26:13;;;;;;;11.13;2.63;;;;;;;-143.84;26.94;45096.66;5030137;28;20450;-70
2022/03/24 02:28:42;;;;;;;7.87;3.53;;;;;;;-143.84;27.19;45106.19;5030132;28;20447;-70
2022/03/24 02:31:10;;;;;;;2.40;2.20;;;;;;;-143.84;26.97;45104.28;5030215;28;20443;-71
2022/03/24 02:33:38;;;;;;;3.00;2.80;;;;;;;-143.84;27.22;45079.53;5030070;28;20482;-70
2022/03/24 02:36:06;;;;;;;3.83;3.00;;;;;;;-143.84;27.65;45098.56;5029757;28;20438;-70
2022/03/24 02:38:34;;;;;;;3.40;2.80;;;;;;;-143.84;27.42;45096.66;5029747;28;20447;-70
2022/03/24 02:41:02;;;;;;;5.60;2.50;;;;;;;-143.84;27.53;45090.97;5030003;28;20861;-70
2022/03/24 02:43:29;;;;;;;3.67;2.50;;;;;;;-143.84;27.75;45102.38;5029409;28;20453;-70
2022/03/24 02:45:57;;;;;;;2.57;2.37;;;;;;;-143.84;27.39;45096.66;5029882;28;21115;-70
2022/03/24 02:48:24;;;;;;;2.93;2.40;;;;;;;-143.84;27.41;45117.63;5029345;28;21003;-70
2022/03/24 02:50:51;;;;;;;5.27;2.70;;;;;;;-143.84;27.25;45081.44;5029639;28;20446;-70
2022/03/24 02:53:19;;;;;;;3.23;3.03;;;;;;;-143.84;26.96;45092.88;5029377;28;20482;-70
2022/03/24 02:55:46;;;;;;;3.40;2.37;;;;;;;-143.84;27.04;45110.00;5029708;28;20452;-70
2022/03/24 02:58:15;;;;;;;2.70;1.77;;;;;;;-143.84;26.91;45117.63;5029352;28;20439;-70
2022/03/24 03:00:43;;;;;;;2.77;2.07;;;;;;;-143.84;26.91;45111.91;5029410;28;20512;-70
2022/03/24 03:03:12;;;;;;;3.60;2.53;;;;;;;-143.84;26.80;45094.78;5029527;28;20508;-70
2022/03/24 03:05:39;;;;;;;3.03;2.80;;;;;;;-143.84;26.57;45087.16;5029387;28;20478;-70
2022/03/24 03:08:07;;;;;;;7.50;2.97;;;;;;;-143.84;26.54;45130.94;5029302;28;20956;-70
2022/03/24 03:10:35;;;;;;;2.70;2.50;;;;;;;-143.84;26.58;45098.56;5029487;28;20438;-70
2022/03/24 03:13:02;;;;;;;2.17;2.07;;;;;;;-143.84;26.51;45075.72;5029194;28;20478;-70
2022/03/24 03:15:31;;;;;;;3.60;3.30;;;;;;;-143.84;26.66;45104.28;5029359;28;20442;-70
2022/03/24 03:17:58;;;;;;;2.53;2.33;;;;;;;-143.84;26.08;45106.19;5029339;28;20442;-70
2022/03/24 03:20:25;;;;;;;7.27;2.67;;;;;;;-143.84;25.83;45092.88;5029272;28;20509;-70
2022/03/24 03:22:53;;;;;;;3.10;2.90;;;;;;;-143.84;25.71;45113.81;5029185;28;20454;-70
2022/03/24 03:25:20;;;;;;;3.50;2.47;;;;;;;-143.84;25.73;45106.19;5029040;28;20446;-70
2022/03/24 03:27:47;;;;;;;3.80;2.90;;;;;;;-143.84;25.13;45130.94;5028899;28;20442;-70
2022/03/24 03:30:14;;;;;;;3.20;2.87;;;;;;;-143.84;24.45;45098.56;5028946;28;21031;-70
2022/03/24 03:32:43;;;;;;;3.07;2.87;;;;;;;-143.84;24.69;45106.19;5028905;28;20442;-70
2022/03/24 03:35:10;;;;;;;3.47;3.17;;;;;;;-143.84;24.20;45090.97;5028978;28;20485;-70
2022/03/24 03:37:38;;;;;;;3.30;3.00;;;;;;;-143.84;24.12;45073.81;5028998;28;20439;-70
2022/03/24 03:40:07;;;;;;;3.93;3.20;;;;;;;-143.84;24.37;45094.78;5028928;28;20481;-70
2022/03/24 03:42:34;;;;;;;5.07;2.80;;;;;;;-143.84;24.59;45136.66;5028528;28;20454;-70
2022/03/24 03:45:02;;;;;;;4.03;2.67;;;;;;;-143.84;24.41;45136.66;5028848;28;20447;-70
2022/03/24 03:47:29;;;;;;;4.30;3.40;;;;;;;-143.84;24.31;45100.47;5028963;28;20439;-70
2022/03/24 03:49:58;;;;;;;3.40;3.10;;;;;;;-143.84;24.35;45110.00;5028726;28;20538;-70
2022/03/24 03:52:25;;;;;;;4.10;3.80;;;;;;;-143.84;24.63;45102.38;5028973;28;20454;-70
2022/03/24 03:54:53;;;;;;;4.77;3.70;;;;;;;-143.84;24.16;45113.81;5028779;28;20501;-70
2022/03/24 03:57:20;;;;;;;4.67;4.20;;;;;;;-143.84;24.46;45098.56;5028887;28;20796;-70
2022/03/24 03:59:47;;;;;;;3.73;3.40;;;;;;;-143.84;24.18;45089.06;5028970;28;20492;-70
2022/03/24 04:02:14;;;;;;;5.10;4.03;;;;;;;-143.84;24.13;45121.44;5028912;28;20513;-70
2022/03/24 04:04:41;;;;;;;4.20;3.80;;;;;;;-143.84;24.11;45094.78;5028692;28;20493;-70
2022/03/24 04:07:10;;;;;;;7.20;4.70;;;;;;;-143.84;24.46;45096.66;5028960;28;20438;-70
2022/03/24 04:09:37;;;;;;;6.50;4.70;;;;;;;-143.84;24.15;45130.94;5028465;28;20537;-70
2022/03/24 04:12:05;;;;;;;7.97;6.70;;;;;;;-143.84;24.32;45110.00;5027736;28;20533;-71
2022/03/24 04:14:33;;;;;;;8.60;7.10;;;;;;;-143.84;24.10;45075.72;5028714;28;21049;-71
2022/03/24 04:17:00;;;;;;;7.33;6.40;;;;;;;-143.84;24.10;45092.88;5028808;28;20435;-72
2022/03/24 04:19:27;;;;;;;7.77;6.97;;;;;;;-143.84;24.25;45073.81;5030256;28;20472;-71
2022/03/24 04:21:55;;;;;;;8.00;7.20;;;;;;;-143.84;24.35;45089.06;5042698;28;21142;-71
2022/03/24 04:24:23;;;;;;;7.63;6.90;;;;;;;-143.84;24.64;45102.38;5029178;28;20434;-71
2022/03/24 04:26:50;;;;;;;11.60;8.23;;;;;;;-143.84;24.58;45071.91;5028038;28;20439;-71
2022/03/24 04:29:17;;;;;;;9.47;8.10;;;;;;;-143.84;24.41;45089.06;5032716;28;20474;-71
2022/03/24 04:31:44;;;;;;;9.23;7.83;;;;;;;-143.84;24.33;45094.78;5046481;28;20445;-71
2022/03/24 04:34:12;;;;;;;9.50;8.50;;;;;;;-143.84;24.12;45104.28;5046370;28;20504;-71
2022/03/24 04:36:39;;;;;;;9.80;8.83;;;;;;;-143.84;24.31;45098.56;5045653;28;20448;-71
2022/03/24 04:39:06;;;;;;;14.80;9.33;;;;;;;-143.84;24.15;45077.63;5042928;28;20508;-71
2022/03/24 04:41:35;;;;;;;16.53;10.90;;;;;;;-143.84;24.30;45077.63;5041267;28;20434;-71
2022/03/24 04:44:02;;;;;;;12.93;9.27;;;;;;;-143.84;24.00;45102.38;5041121;28;20488;-71
2022/03/24 04:46:29;;;;;;;15.50;11.70;;;;;;;-143.84;23.98;45092.88;5041741;28;20442;-70
2022/03/24 04:48:56;;;;;;;16.13;11.47;;;;;;;-143.84;23.78;45087.16;5040217;28;20483;-71
2022/03/24 04:51:23;;;;;;;12.53;9.47;;;;;;;-143.84;23.84;45083.34;5042255;28;20434;-71
2022/03/24 04:53:50;;;;;;;14.80;10.77;;;;;;;-143.84;24.03;45073.81;5040851;28;20527;-71
2022/03/24 04:56:18;;;;;;;10.80;9.30;;;;;;;-143.84;23.83;45106.19;5040074;28;20956;-71
2022/03/24 04:58:48;;;;;;;13.63;10.90;;;;;;;-143.84;23.52;45102.38;5050360;28;20491;-72
2022/03/24 05:01:16;;;;;;;16.17;10.67;;;;;;;-143.84;24.25;45108.09;5051560;28;20450;-70
2022/03/24 05:03:46;;;;;;;14.77;10.33;;;;;;;-143.84;24.31;45064.31;5051569;28;20441;-70
2022/03/24 05:06:13;;;;;;;9.93;8.90;;;;;;;-143.84;24.00;45073.81;5050815;28;20477;-69
2022/03/24 05:08:41;;;;;;;10.60;8.80;;;;;;;-143.84;23.41;45087.16;5051242;28;20445;-69
2022/03/24 05:11:08;;;;;;;10.33;8.03;;;;;;;-143.84;23.29;45064.31;5051271;28;20864;-69
2022/03/24 05:13:35;;;;;;;10.97;8.60;;;;;;;-143.84;23.13;45104.28;5051165;28;20479;-69
2022/03/24 05:16:04;;;;;;;11.83;9.10;;;;;;;-143.84;23.48;45068.13;5051337;28;20878;-69
2022/03/24 05:18:32;;;;;;;13.67;8.80;;;;;;;-143.84;23.47;45070.00;5051175;28;20449;-70
2022/03/24 05:20:59;;;;;;;9.40;8.50;;;;;;;-143.84;23.53;45066.22;5051121;28;20472;-69
2022/03/24 05:23:26;;;;;;;13.13;9.10;;;;;;;-143.84;23.44;45096.66;5050947;28;20447;-70
2022/03/24 05:25:53;;;;;;;12.93;9.17;;;;;;;-143.84;23.08;45052.88;5051276;28;20444;-70
2022/03/24 05:28:20;;;;;;;10.27;8.23;;;;;;;-143.84;23.24;45050.97;5051146;28;21020;-70
2022/03/24 05:30:47;;;;;;;14.63;9.43;;;;;;;-143.84;23.43;45033.84;5051194;28;20445;-69
2022/03/24 05:33:16;;;;;;;11.57;10.40;;;;;;;-143.84;23.31;45068.13;5050916;28;20503;-69
2022/03/24 05:35:44;;;;;;;13.03;9.60;;;;;;;-143.84;23.50;45045.25;5043775;28;20463;-69
2022/03/24 05:38:11;;;;;;;12.30;11.00;;;;;;;-143.84;23.40;45049.06;5050512;28;21003;-68
2022/03/24 05:40:38;;;;;;;14.30;11.80;;;;;;;-143.84;23.85;45056.69;5039290;28;20438;-69
2022/03/24 05:43:06;;;;;;;17.00;11.60;;;;;;;-143.84;23.69;45111.91;5040058;28;20542;-69
2022/03/24 05:45:33;;;;;;;14.33;10.00;;;;;;;-143.84;23.91;45035.75;5039346;28;20457;-70
2022/03/24 05:48:00;;;;;;;11.07;8.97;;;;;;;-143.84;23.98;45054.78;5039273;28;20442;-69
2022/03/24 05:50:29;;;;;;;10.37;8.80;;;;;;;-143.84;23.61;45033.84;5042505;28;20987;-70
2022/03/24 05:52:57;;;;;;;13.90;9.07;;;;;;;-143.84;23.35;45026.22;5030739;28;20455;-70
2022/03/24 05:55:24;;;;;;;9.07;8.27;;;;;;;-143.84;23.04;45009.09;5030662;28;20482;-71
2022/03/24 05:57:51;;;;;;;10.63;8.30;;;;;;;-143.84;22.92;45022.41;5030772;28;20437;-71
2022/03/24 06:00:19;;;;;;;12.03;8.37;;;;;;;-143.84;23.21;45022.41;5030881;28;20440;-71
2022/03/24 06:02:46;;;;;;;8.40;7.50;;;;;;;-143.84;22.89;45039.53;5030589;28;21259;-71
2022/03/24 06:05:14;;;;;;;9.47;7.00;;;;;;;-143.84;22.29;45018.59;5030556;28;20434;-71
2022/03/24 06:07:42;;;;;;;9.00;8.10;;;;;;;-143.84;22.38;45030.03;5030834;28;20499;-71
2022/03/24 06:10:10;;;;;;;10.00;7.40;;;;;;;-143.84;22.74;45033.84;5030467;28;20446;-71
2022/03/24 06:12:38;;;;;;;10.77;7.37;;;;;;;-143.84;22.67;45020.50;5030627;28;21003;-71
2022/03/24 06:15:07;;;;;;;9.10;6.17;;;;;;;-143.84;22.95;45030.03;5030351;28;21022;-70
2022/03/24 06:17:35;;;;;;;10.00;6.07;;;;;;;-143.84;23.10;45016.69;5030578;28;20529;-70
2022/03/24 06:20:03;;;;;;;28.13;6.67;;;;;;;-143.84;23.85;45007.19;5032706;28;20449;-70
2022/03/24 06:22:31;;;;;;;12.63;8.03;;;;;;;-143.84;23.62;45009.09;5030641;28;20469;-75
2022/03/24 06:25:00;;;;;;;83.30;49.77;;;;;;;-143.84;24.12;45005.28;5030609;28;20450;-71
2022/03/24 06:27:28;;;;;;;13.20;8.87;;;;;;;-143.84;24.70;45030.03;5030671;28;20438;-71
2022/03/24 06:29:55;;;;;;;10.90;6.47;;;;;;;-143.84;24.62;45016.69;5033346;28;20801;-71
2022/03/24 06:32:22;;;;;;;8.93;6.60;;;;;;;-143.84;24.70;44988.13;5033052;28;20446;-71
2022/03/24 06:34:51;;;;;;;8.70;5.93;;;;;;;-143.84;24.42;45005.28;5033143;28;20974;-71
2022/03/24 06:37:18;;;;;;;12.77;6.53;;;;;;;-143.84;25.01;44986.22;5033314;28;20538;-73
2022/03/24 06:39:45;;;;;;;8.73;6.23;;;;;;;-143.84;24.77;44991.94;5033048;28;20496;-71
2022/03/24 06:42:14;;;;;;;8.37;6.60;;;;;;;-143.84;25.20;45007.19;5033187;28;20511;-71
2022/03/24 06:44:41;;;;;;;7.47;6.70;;;;;;;-143.84;24.99;45009.09;5032610;28;20486;-71
2022/03/24 06:47:09;;;;;;;7.50;5.07;;;;;;;-143.84;25.43;45010.97;5032705;28;20437;-71
2022/03/24 06:49:36;;;;;;;10.17;6.87;;;;;;;-143.84;25.75;45003.38;5032449;28;20482;-71
2022/03/24 06:52:03;;;;;;;7.80;5.30;;;;;;;-143.84;26.54;44999.56;5032541;28;20503;-71
2022/03/24 06:54:31;;;;;;;9.67;6.60;;;;;;;-143.84;26.24;45001.47;5031202;28;20530;-71
2022/03/24 06:56:58;;;;;;;92.07;59.17;;;;;;;-143.84;26.63;45010.97;5031694;28;20440;-71
2022/03/24 06:59:26;;;;;;;15.87;5.87;;;;;;;-143.84;26.14;44988.13;5031338;28;20448;-71
2022/03/24 07:01:53;;;;;;;13.23;6.13;;;;;;;-143.84;26.52;45005.28;5031191;28;20447;-71
2022/03/24 07:04:20;;;;;;;18.93;6.40;;;;;;;-143.84;26.50;44984.31;5031538;28;20434;-71
2022/03/24 07:06:48;;;;;;;23.03;6.03;;;;;;;-143.84;27.09;44982.41;5031387;28;20449;-70
2022/03/24 07:09:15;;;;;;;15.30;6.43;;;;;;;-143.84;27.08;44991.94;5030791;28;20477;-70
2022/03/24 07:11:42;;;;;;;22.20;7.47;;;;;;;-143.84;27.22;45001.47;5031068;28;20442;-70
2022/03/24 07:14:10;;;;;;;16.30;7.33;;;;;;;-143.84;27.09;45003.38;5031079;28;20480;-71
2022/03/24 07:16:39;;;;;;;21.57;7.60;;;;;;;-143.84;27.71;44965.28;5030945;28;21197;-71
2022/03/24 07:19:08;;;;;;;17.23;6.97;;;;;;;-143.84;32.00;44982.41;5030705;28;20442;-76
2022/03/24 07:21:35;;;;;;;15.77;7.27;;;;;;;-143.84;29.76;44980.53;5029320;28;20446;-75
2022/03/24 07:24:02;;;;;;;17.93;7.50;;;;;;;-143.84;27.85;44993.84;5029823;28;20797;-75
2022/03/24 07:26:29;;;;;;;17.40;7.77;;;;;;;-143.84;27.51;44988.13;5029729;28;20435;-73
2022/03/24 07:28:56;;;;;;;24.80;12.10;;;;;;;-143.84;26.77;44969.09;5030243;28;20439;-73
2022/03/24 07:31:26;;;;;;;38.87;20.80;;;;;;;-143.84;27.06;44963.38;5030654;28;20446;-73
2022/03/24 07:33:55;;;;;;;14.90;8.57;;;;;;;-143.84;26.27;44950.06;5030318;28;20435;-73
2022/03/24 07:36:23;;;;;;;17.63;8.37;;;;;;;-143.84;26.52;44957.66;5028882;28;20530;-73
2022/03/24 07:38:51;;;;;;;17.10;8.93;;;;;;;-143.84;26.60;44965.28;5028946;28;20500;-73
2022/03/24 07:41:18;;;;;;;18.00;8.97;;;;;;;-143.84;26.19;44988.13;5028630;28;21092;-73
2022/03/24 07:43:45;;;;;;;15.03;8.60;;;;;;;-143.84;25.99;44971.00;5029041;28;20924;-73
2022/03/24 07:46:13;;;;;;;18.00;8.90;;;;;;;-143.84;26.23;44950.06;5028959;28;20481;-73
2022/03/24 07:48:43;;;;;;;21.90;9.37;;;;;;;-143.84;25.86;44978.63;5028299;28;20482;-73
2022/03/24 07:51:11;;;;;;;18.87;8.77;;;;;;;-143.84;26.37;44967.19;5028649;28;20453;-73
2022/03/24 07:54:00;;;;;;;17.50;10.37;;;;;;;-143.84;25.64;44961.47;5028523;28;20457;-73
2022/03/24 07:56:28;;;;;;;16.47;9.43;;;;;;;-143.84;25.60;44955.75;5028690;28;20476;-73
2022/03/24 07:58:56;;;;;;;21.00;9.67;;;;;;;-143.84;26.05;44967.19;5028520;28;20508;-73
2022/03/24 08:01:29;;;;;;;17.83;8.37;;;;;;;-143.84;26.28;44950.06;5028612;28;20446;-73
2022/03/24 08:03:56;;;;;;;14.33;10.17;;;;;;;-143.84;24.88;44951.97;5011533;28;20442;-73
2022/03/24 08:06:25;;;;;;;20.63;11.50;;;;;;;-143.84;23.89;44976.72;5032536;28;20450;-73
2022/03/24 08:08:53;;;;;;;24.03;12.50;;;;;;;-143.84;23.36;44974.81;5032554;28;20453;-73
2022/03/24 08:11:22;;;;;;;21.87;11.53;;;;;;;-143.84;24.12;44959.56;5032487;28;20435;-73
2022/03/24 08:13:52;;;;;;;21.00;12.80;;;;;;;-143.84;23.82;44959.56;5032573;28;20439;-75
2022/03/24 08:16:19;;;;;;;42.70;21.23;;;;;;;-143.84;24.19;44991.94;5033688;28;20862;-73
2022/03/24 08:18:46;;;;;;;34.60;16.37;;;;;;;-143.84;23.92;44974.81;5033855;28;20941;-73
2022/03/24 08:21:13;;;;;;;23.87;12.27;;;;;;;-143.84;23.37;44965.28;5032633;28;20447;-72
2022/03/24 08:23:42;;;;;;;24.83;13.50;;;;;;;-143.84;23.90;44974.81;5032554;28;20446;-73
2022/03/24 08:26:09;;;;;;;24.73;13.03;;;;;;;-143.84;23.95;44931.00;5032080;28;20454;-73
2022/03/24 08:28:36;;;;;;;30.17;12.50;;;;;;;-143.84;24.08;44959.56;5032157;28;20446;-73
2022/03/24 08:31:04;;;;;;;24.50;13.00;;;;;;;-143.84;23.83;44971.00;5032126;28;20960;-73
2022/03/24 08:33:31;;;;;;;16.97;12.50;;;;;;;-143.84;23.77;44984.31;5032160;28;20439;-73
2022/03/24 08:35:58;;;;;;;25.30;11.27;;;;;;;-143.84;24.26;44965.28;5032065;28;20474;-73
2022/03/24 08:38:26;;;;;;;24.03;15.20;;;;;;;-143.84;24.04;44967.19;5032251;28;20453;-73
2022/03/24 08:40:54;;;;;;;28.73;13.50;;;;;;;-143.84;24.33;44969.09;5032266;28;20465;-72
2022/03/24 08:43:21;;;;;;;31.97;16.40;;;;;;;-143.84;24.04;44959.56;5032385;28;20480;-73
2022/03/24 08:45:49;;;;;;;22.50;13.30;;;;;;;-143.84;24.20;44980.53;5032031;28;20469;-72
2022/03/24 08:48:16;;;;;;;31.87;12.37;;;;;;;-143.84;24.99;44967.19;5031548;28;20486;-73
2022/03/24 08:50:43;;;;;;;29.43;14.73;;;;;;;-143.84;24.97;44980.53;5032111;28;20856;-72
2022/03/24 08:53:10;;;;;;;33.83;15.17;;;;;;;-143.84;25.12;44990.03;5031752;28;20447;-72
2022/03/24 08:55:38;;;;;;;26.63;14.10;;;;;;;-143.84;26.00;44965.28;5031762;28;20493;-72
2022/03/24 08:58:08;;;;;;;26.57;12.77;;;;;;;-143.84;26.98;44980.53;5031621;28;20948;-72
2022/03/24 09:00:36;;;;;;;20.50;12.00;;;;;;;-143.84;26.40;44961.47;5033055;28;20442;-73
2022/03/24 09:03:03;;;;;;;66.93;43.73;;;;;;;-143.84;26.00;45007.19;5034093;28;20450;-73
2022/03/24 09:05:30;;;;;;;18.93;12.67;;;;;;;-143.84;26.34;44974.81;5032880;28;20434;-73
2022/03/24 09:07:57;;;;;;;60.47;29.77;;;;;;;-143.84;26.40;44995.75;5033746;28;20525;-72
2022/03/24 09:10:24;;;;;;;47.60;26.97;;;;;;;-143.84;25.56;44988.13;5033654;28;20983;-72
2022/03/24 09:12:51;;;;;;;17.87;11.90;;;;;;;-143.84;25.21;44976.72;5031953;28;20446;-72
2022/03/24 09:15:20;;;;;;;22.30;11.67;;;;;;;-143.84;25.06;44990.03;5030782;28;20478;-73
2022/03/24 09:17:49;;;;;;;23.80;11.60;;;;;;;-143.84;25.77;45005.28;5031413;28;20451;-73
2022/03/24 09:20:18;;;;;;;17.90;10.90;;;;;;;-143.84;25.66;44974.81;5031229;28;20452;-73
2022/03/24 09:22:48;;;;;;;15.47;10.70;;;;;;;-143.84;25.10;44971.00;5031257;28;20496;-73
2022/03/24 09:25:18;;;;;;;18.03;11.47;;;;;;;-143.84;25.23;44991.94;5031567;28;20456;-73
2022/03/24 09:27:46;;;;;;;19.17;11.60;;;;;;;-143.84;25.63;44990.03;5031011;28;20843;-73
2022/03/24 09:30:18;;;;;;;18.53;11.47;;;;;;;-143.84;25.44;44980.53;5031009;28;20969;-73
2022/03/24 09:32:48;;;;;;;14.47;10.03;;;;;;;-143.84;25.08;44976.72;5030874;28;20448;-73
2022/03/24 09:35:16;;;;;;;21.57;10.13;;;;;;;-143.84;24.95;44982.41;5030907;28;20475;-73
2022/03/24 09:37:43;;;;;;;28.10;9.67;;;;;;;-143.84;25.17;44984.31;5031335;28;20482;-72
2022/03/24 09:40:12;;;;;;;15.30;9.60;;;;;;;-143.84;25.45;44982.41;5031888;28;20466;-72
2022/03/24 09:42:40;;;;;;;16.53;10.90;;;;;;;-143.84;24.66;44991.94;5031237;28;20801;-73
2022/03/24 09:45:11;;;;;;;9.30;8.40;;;;;;;-143.84;23.22;44980.53;5030805;28;20521;-73
2022/03/24 09:47:39;;;;;;;13.53;9.83;;;;;;;-143.84;23.83;44932.91;5031211;28;20445;-75
2022/03/24 09:50:09;;;;;;;9.73;7.03;;;;;;;-143.84;23.52;44995.75;5031690;28;20654;-80
2022/03/24 09:52:36;;;;;;;11.97;8.03;;;;;;;-143.84;23.42;44984.31;5031880;28;20429;-76
2022/03/24 09:55:05;;;;;;;19.50;14.20;;;;;;;-143.84;23.37;44993.84;5030926;28;20481;-78
2022/03/24 09:57:33;;;;;;;12.13;8.17;;;;;;;-143.84;23.43;44976.72;5029490;28;21380;-75
2022/03/24 10:00:00;;;;;;;18.50;8.10;;;;;;;-143.84;23.83;44986.22;5029950;28;20882;-74
2022/03/24 10:02:29;;;;;;;13.43;8.53;;;;;;;-143.84;24.03;44969.09;5031786;28;20506;-75
2022/03/24 10:05:01;;;;;;;11.80;9.57;;;;;;;-143.84;24.36;44995.75;5032201;28;20453;-75
2022/03/24 10:07:34;;;;;;;15.93;10.00;;;;;;;-143.84;23.76;44993.84;5032148;28;20431;-75
2022/03/24 10:10:02;;;;;;;14.80;9.17;;;;;;;-143.84;24.23;44999.56;5032011;28;20490;-75
2022/03/24 10:12:31;;;;;;;21.67;10.07;;;;;;;-143.84;24.30;44991.94;5031985;28;20952;-75
2022/03/24 10:15:00;;;;;;;21.77;9.60;;;;;;;-143.84;24.29;45014.78;5032152;28;20995;-75
2022/03/24 10:17:28;;;;;;;22.83;10.27;;;;;;;-143.84;24.38;44986.22;5032184;28;20450;-75
2022/03/24 10:20:00;;;;;;;11.67;7.33;;;;;;;-143.84;24.12;44988.13;5031921;28;20439;-75
2022/03/24 10:22:29;;;;;;;19.47;8.10;;;;;;;-143.84;24.72;44999.56;5031710;28;20443;-75
2022/03/24 10:24:56;;;;;;;15.87;9.07;;;;;;;-143.84;24.73;45007.19;5031658;28;20447;-75
2022/03/24 10:27:26;;;;;;;14.90;8.67;;;;;;;-143.84;24.70;44978.63;5031388;28;20466;-75
2022/03/24 10:29:56;;;;;;;12.70;8.43;;;;;;;-143.84;24.83;44999.56;5031817;28;20448;-75
2022/03/24 10:32:28;;;;;;;13.40;8.53;;;;;;;-143.84;25.20;44999.56;5031620;28;20506;-75
2022/03/24 10:34:59;;;;;;;22.43;8.17;;;;;;;-143.84;24.67;45007.19;5031240;28;20436;-75
2022/03/24 10:37:29;;;;;;;20.90;9.30;;;;;;;-143.84;24.80;45003.38;5031926;28;20436;-75
2022/03/24 10:39:59;;;;;;;17.80;9.30;;;;;;;-143.84;24.80;44993.84;5031579;28;20445;-75
2022/03/24 10:42:29;;;;;;;17.30;7.47;;;;;;;-143.84;25.66;44988.13;5031155;28;20440;-75
2022/03/24 10:45:18;;;;;;;19.53;9.50;;;;;;;-143.84;24.57;44997.66;5031333;28;20432;-76
2022/03/24 10:47:49;;;;;;;11.77;7.60;;;;;;;-143.84;25.03;44959.56;5030644;28;20451;-75
2022/03/24 10:50:37;;;;;;;17.30;7.20;;;;;;;-143.84;25.78;44963.38;5031472;28;20445;-74
2022/03/24 10:53:08;;;;;;;14.00;7.60;;;;;;;-143.84;25.05;44986.22;5030514;28;20792;-75
2022/03/24 10:55:47;;;;;;;23.60;16.57;;;;;;;-143.84;25.52;45005.28;5030240;28;20522;-76
2022/03/24 10:58:21;;;;;;;26.10;17.63;;;;;;;-143.84;25.58;44999.56;5029492;28;20447;-75
2022/03/24 11:00:50;;;;;;;8.60;7.70;;;;;;;-143.84;25.47;45005.28;5029822;28;20446;-75
2022/03/24 11:03:19;;;;;;;14.97;7.60;;;;;;;-143.84;26.05;44988.13;5037061;28;20517;-74
2022/03/24 11:05:46;;;;;;;11.40;8.07;;;;;;;-143.84;26.54;44978.63;5029514;28;20505;-73
2022/03/24 11:08:18;;;;;;;10.67;7.90;;;;;;;-143.84;26.20;44990.03;5029451;28;20509;-73
2022/03/24 11:10:47;;;;;;;11.20;8.13;;;;;;;-143.84;25.74;45009.09;5029343;28;20479;-73
2022/03/24 11:13:26;;;;;;;20.63;8.60;;;;;;;-143.84;26.32;44999.56;5029398;28;20529;-73
2022/03/24 11:15:54;;;;;;;18.90;8.93;;;;;;;-143.84;25.54;44988.13;5029474;28;20851;-73